createdAt,value
2022-09-10T00:00:16.919Z,69.90
2022-09-10T00:02:54.273Z,69.79
2022-09-10T00:05:27.920Z,69.81
2022-09-10T00:08:01.657Z,69.32
2022-09-10T00:10:40.163Z,68.97
2022-09-10T00:13:13.880Z,69.19
2022-09-10T00:15:49.088Z,68.89
2022-09-10T00:18:23.951Z,68.95
2022-09-10T00:20:58.988Z,68.62
2022-09-10T00:23:32.034Z,68.65
2022-09-10T00:26:13.487Z,68.67
2022-09-10T00:28:46.922Z,68.58
2022-09-10T00:31:21.966Z,68.53
2022-09-10T00:33:56.897Z,68.44
2022-09-10T00:36:33.286Z,68.58
2022-09-10T00:39:08.616Z,68.13
2022-09-10T00:41:43.411Z,68.50
2022-09-10T00:44:54.322Z,67.62
2022-09-10T00:47:32.370Z,68.54
2022-09-10T00:50:17.944Z,68.50
2022-09-10T00:52:54.449Z,68.45
2022-09-10T00:55:27.513Z,68.60
2022-09-10T00:58:02.928Z,68.81
2022-09-10T01:00:36.209Z,68.73
2022-09-10T01:03:12.145Z,68.22
2022-09-10T01:05:48.449Z,68.54
2022-09-10T01:08:21.385Z,68.94
2022-09-10T01:11:08.756Z,68.52
2022-09-10T01:13:58.948Z,68.46
2022-09-10T01:16:39.027Z,68.63
2022-09-10T01:19:29.315Z,68.36
2022-09-10T01:22:12.546Z,68.49
2022-09-10T01:24:55.760Z,68.56
2022-09-10T01:27:41.251Z,68.61
2022-09-10T01:30:19.647Z,68.98
2022-09-10T01:32:59.501Z,68.36
2022-09-10T01:35:43.334Z,68.41
2022-09-10T01:38:21.082Z,68.85
2022-09-10T01:40:56.176Z,68.54
2022-09-10T01:43:30.817Z,68.20
2022-09-10T01:46:26.866Z,68.11
2022-09-10T01:49:14.790Z,68.66
2022-09-10T01:52:12.228Z,68.56
2022-09-10T01:54:57.118Z,69.19
2022-09-10T01:57:41.731Z,69.49
2022-09-10T02:00:19.515Z,69.56
2022-09-10T02:03:00.100Z,70.06
2022-09-10T02:05:37.744Z,70.47
2022-09-10T02:08:14.296Z,71.12
2022-09-10T02:10:53.855Z,71.25
2022-09-10T02:13:29.931Z,71.22
2022-09-10T02:16:09.251Z,71.28
2022-09-10T02:18:42.826Z,71.17
2022-09-10T02:21:16.030Z,71.63
2022-09-10T02:23:54.972Z,71.43
2022-09-10T02:26:28.059Z,71.69
2022-09-10T02:29:01.919Z,71.79
2022-09-10T02:31:36.232Z,72.10
2022-09-10T02:34:09.441Z,72.20
2022-09-10T02:36:42.325Z,72.32
2022-09-10T02:39:15.210Z,72.37
2022-09-10T02:41:48.249Z,72.46
2022-09-10T02:44:21.099Z,72.93
2022-09-10T02:46:56.038Z,72.86
2022-09-10T02:49:29.557Z,72.86
2022-09-10T02:52:03.505Z,72.92
2022-09-10T02:54:36.404Z,73.08
2022-09-10T02:57:09.233Z,73.43
2022-09-10T02:59:42.355Z,73.54
2022-09-10T03:02:16.769Z,73.29
2022-09-10T03:04:49.669Z,73.64
2022-09-10T03:07:23.837Z,73.71
2022-09-10T03:09:56.794Z,73.32
2022-09-10T03:12:29.562Z,73.33
2022-09-10T03:15:03.732Z,73.50
2022-09-10T03:17:41.238Z,73.26
2022-09-10T03:20:14.876Z,73.74
2022-09-10T03:22:47.731Z,73.65
2022-09-10T03:25:20.696Z,73.83
2022-09-10T03:27:53.489Z,73.83
2022-09-10T03:30:26.679Z,74.02
2022-09-10T03:33:01.111Z,74.36
2022-09-10T03:35:34.380Z,74.33
2022-09-10T03:38:07.280Z,74.33
2022-09-10T03:40:40.137Z,74.18
2022-09-10T03:43:13.035Z,74.25
2022-09-10T03:45:46.147Z,74.41
2022-09-10T03:48:21.592Z,74.61
2022-09-10T03:50:56.571Z,74.35
2022-09-10T03:53:29.847Z,75.13
2022-09-10T03:56:03.595Z,75.06
2022-09-10T03:58:36.861Z,75.05
2022-09-10T04:01:09.869Z,75.39
2022-09-10T04:03:44.158Z,74.96
2022-09-10T04:06:17.280Z,74.76
2022-09-10T04:08:52.006Z,75.16
2022-09-10T04:11:27.701Z,74.58
2022-09-10T04:14:00.984Z,74.36
2022-09-10T04:16:34.092Z,74.57
2022-09-10T04:19:08.827Z,74.49
2022-09-10T04:21:41.633Z,74.59
2022-09-10T04:24:14.611Z,74.27
2022-09-10T04:26:47.618Z,73.91
2022-09-10T04:29:20.658Z,74.21
2022-09-10T04:31:55.315Z,73.83
2022-09-10T04:34:29.829Z,73.87
2022-09-10T04:37:02.678Z,74.08
2022-09-10T04:39:36.035Z,74.25
2022-09-10T04:42:09.866Z,74.14
2022-09-10T04:44:42.913Z,73.83
2022-09-10T04:47:16.082Z,74.65
2022-09-10T04:49:50.278Z,74.83
2022-09-10T04:52:24.399Z,74.59
2022-09-10T04:54:57.223Z,74.78
2022-09-10T04:57:30.111Z,75.33
2022-09-10T05:00:03.351Z,75.52
2022-09-10T05:02:37.668Z,75.78
2022-09-10T05:05:12.001Z,76.54
2022-09-10T05:07:44.995Z,76.76
2022-09-10T05:10:18.243Z,76.70
2022-09-10T05:12:51.127Z,77.13
2022-09-10T05:15:23.922Z,76.99
2022-09-10T05:17:56.817Z,76.72
2022-09-10T05:20:31.773Z,76.17
2022-09-10T05:23:04.666Z,76.94
2022-09-10T05:25:37.675Z,76.59
2022-09-10T05:28:12.255Z,76.31
2022-09-10T05:30:51.363Z,76.37
2022-09-10T05:33:25.020Z,75.99
2022-09-10T05:35:59.436Z,75.92
2022-09-10T05:38:32.360Z,76.19
2022-09-10T05:41:06.772Z,75.87
2022-09-10T05:43:40.392Z,76.20
2022-09-10T05:46:13.165Z,75.76
2022-09-10T05:48:47.354Z,75.72
2022-09-10T05:51:22.104Z,75.58
2022-09-10T05:53:55.011Z,75.29
2022-09-10T05:56:27.837Z,75.60
2022-09-10T05:59:00.906Z,75.11
2022-09-10T06:01:33.901Z,75.31
2022-09-10T06:04:06.974Z,75.45
2022-09-10T06:06:41.301Z,75.04
2022-09-10T06:09:14.337Z,75.70
2022-09-10T06:11:49.704Z,75.25
2022-09-10T06:14:22.960Z,74.86
2022-09-10T06:16:55.754Z,74.83
2022-09-10T06:19:29.391Z,74.87
2022-09-10T06:22:03.700Z,74.37
2022-09-10T06:24:36.681Z,74.38
2022-09-10T06:27:09.734Z,74.19
2022-09-10T06:29:42.970Z,74.50
2022-09-10T06:32:15.794Z,74.40
2022-09-10T06:34:48.602Z,74.42
2022-09-10T06:37:24.101Z,74.35
2022-09-10T06:39:57.113Z,74.52
2022-09-10T06:42:29.972Z,74.83
2022-09-10T06:45:04.353Z,74.63
2022-09-10T06:50:31.019Z,74.55
2022-09-10T06:53:05.194Z,73.45
2022-09-10T06:55:38.114Z,73.05
2022-09-10T06:58:11.392Z,72.90
2022-09-10T07:00:46.318Z,72.72
2022-09-10T07:03:20.860Z,72.50
2022-09-10T07:05:54.905Z,72.52
2022-09-10T07:08:29.193Z,72.48
2022-09-10T07:11:05.062Z,72.83
2022-09-10T07:13:38.586Z,72.30
2022-09-10T07:16:11.555Z,71.38
2022-09-10T07:18:44.330Z,71.43
2022-09-10T07:21:18.161Z,71.25
2022-09-10T07:23:56.186Z,70.67
2022-09-10T07:26:29.633Z,70.74
2022-09-10T07:29:02.467Z,69.97
2022-09-10T07:31:38.330Z,70.09
2022-09-10T07:34:11.656Z,69.59
2022-09-10T07:36:44.653Z,69.30
2022-09-10T07:39:22.359Z,69.56
2022-09-10T07:41:58.016Z,69.71
2022-09-10T07:44:30.998Z,69.87
2022-09-10T07:47:04.434Z,70.30
2022-09-10T07:49:37.228Z,69.78
2022-09-10T07:52:10.109Z,69.86
2022-09-10T07:54:44.247Z,69.49
2022-09-10T07:57:17.090Z,68.91
2022-09-10T07:59:49.879Z,68.96
2022-09-10T08:02:25.999Z,68.87
2022-09-10T08:04:58.854Z,68.61
2022-09-10T08:07:31.766Z,68.49
2022-09-10T08:10:09.703Z,68.80
2022-09-10T08:12:43.279Z,68.58
2022-09-10T08:15:16.624Z,68.60
2022-09-10T08:17:49.812Z,68.75
2022-09-10T08:20:26.936Z,68.39
2022-09-10T08:23:00.769Z,68.71
2022-09-10T08:25:35.762Z,67.86
2022-09-10T08:28:08.602Z,68.45
2022-09-10T08:30:41.958Z,67.18
2022-09-10T08:33:15.325Z,66.69
2022-09-10T08:35:54.076Z,66.21
2022-09-10T08:38:27.960Z,66.83
2022-09-10T08:41:02.816Z,66.76
2022-09-10T08:43:43.142Z,66.18
2022-09-10T08:46:23.501Z,66.64
2022-09-10T08:49:05.656Z,66.85
2022-09-10T08:51:45.182Z,66.50
2022-09-10T08:54:23.424Z,66.39
2022-09-10T08:57:00.776Z,65.98
2022-09-10T08:59:37.577Z,66.01
2022-09-10T09:02:38.143Z,65.58
2022-09-10T09:05:17.230Z,65.31
2022-09-10T09:07:51.420Z,65.01
2022-09-10T09:10:33.724Z,64.60
2022-09-10T09:13:45.276Z,65.29
2022-09-10T09:16:39.076Z,64.02
2022-09-10T09:19:18.432Z,63.58
2022-09-10T09:21:54.237Z,62.78
2022-09-10T09:24:37.884Z,63.64
2022-09-10T09:27:16.438Z,63.00
2022-09-10T09:29:56.200Z,62.02
2022-09-10T09:32:34.306Z,62.83
2022-09-10T09:35:17.487Z,62.21
2022-09-10T09:37:55.241Z,63.46
2022-09-10T09:40:33.746Z,61.87
2022-09-10T09:43:15.824Z,62.35
2022-09-10T09:45:50.138Z,61.56
2022-09-10T09:48:24.581Z,61.19
2022-09-10T09:51:00.395Z,60.40
2022-09-10T09:53:33.278Z,61.07
2022-09-10T09:56:12.868Z,60.50
2022-09-10T09:58:49.766Z,59.59
2022-09-10T10:01:26.044Z,58.48
2022-09-10T10:04:02.941Z,58.92
2022-09-10T10:06:47.396Z,59.22
2022-09-10T10:09:22.682Z,59.21
2022-09-10T10:11:58.052Z,60.14
2022-09-10T10:14:42.063Z,59.62
2022-09-10T10:17:36.598Z,60.27
2022-09-10T10:20:14.593Z,60.12
2022-09-10T10:22:49.232Z,61.32
2022-09-10T10:25:38.315Z,60.83
2022-09-10T10:28:25.920Z,61.01
2022-09-10T10:31:02.075Z,61.11
2022-09-10T10:33:37.833Z,60.75
2022-09-10T10:36:20.410Z,61.34
2022-09-10T10:38:59.420Z,60.36
2022-09-10T10:41:59.790Z,58.74
2022-09-10T10:44:56.748Z,58.56
2022-09-10T10:47:40.438Z,59.21
2022-09-10T10:50:26.799Z,56.83
2022-09-10T10:53:19.633Z,57.90
2022-09-10T10:55:59.510Z,58.23
2022-09-10T10:59:00.825Z,58.51
2022-09-10T11:01:39.615Z,58.83
2022-09-10T11:04:27.163Z,59.97
2022-09-10T11:07:06.825Z,58.09
2022-09-10T11:09:45.087Z,58.22
2022-09-10T11:12:22.015Z,58.72
2022-09-10T11:15:00.095Z,57.43
2022-09-10T11:17:40.964Z,58.45
2022-09-10T11:20:34.534Z,58.17
2022-09-10T11:23:20.666Z,57.31
2022-09-10T11:26:00.567Z,57.60
2022-09-10T11:28:39.598Z,58.04
2022-09-10T11:31:17.405Z,58.41
2022-09-10T11:33:58.866Z,58.31
2022-09-10T11:36:40.264Z,58.63
2022-09-10T11:39:23.651Z,58.06
2022-09-10T11:42:01.283Z,58.83
2022-09-10T11:44:46.158Z,59.57
2022-09-10T11:47:26.257Z,62.98
2022-09-10T11:50:04.377Z,63.04
2022-09-10T11:52:38.382Z,64.08
2022-09-10T11:55:17.985Z,64.52
2022-09-10T11:58:04.393Z,64.51
2022-09-10T12:00:49.380Z,64.13
2022-09-10T12:03:52.898Z,64.89
2022-09-10T12:06:38.380Z,66.18
2022-09-10T12:09:18.738Z,65.48
2022-09-10T12:12:03.532Z,65.04
2022-09-10T12:14:41.046Z,65.13
2022-09-10T12:17:18.191Z,65.56
2022-09-10T12:19:54.850Z,64.21
2022-09-10T12:22:54.777Z,64.77
2022-09-10T12:25:34.289Z,64.51
2022-09-10T12:28:48.982Z,64.35
2022-09-10T12:31:23.226Z,64.60
2022-09-10T12:34:18.502Z,63.60
2022-09-10T12:37:23.511Z,64.67
2022-09-10T12:40:36.029Z,64.00
2022-09-10T12:43:46.050Z,63.91
2022-09-10T12:46:22.851Z,64.03
2022-09-10T12:49:12.755Z,64.00
2022-09-10T12:51:59.349Z,62.90
2022-09-10T12:54:48.406Z,64.19
2022-09-10T12:57:30.095Z,64.41
2022-09-10T13:00:21.995Z,66.27
2022-09-10T13:02:59.264Z,65.07
2022-09-10T13:05:37.880Z,63.27
2022-09-10T13:08:19.934Z,62.87
2022-09-10T13:11:26.296Z,62.98
2022-09-10T13:14:02.443Z,62.40
2022-09-10T13:16:42.625Z,61.76
2022-09-10T13:19:52.105Z,61.83
2022-09-10T13:22:55.363Z,62.46
2022-09-10T13:25:36.430Z,62.59
2022-09-10T13:28:42.956Z,62.92
2022-09-10T13:31:24.364Z,63.65
2022-09-10T13:34:29.753Z,63.57
2022-09-10T13:37:21.811Z,63.71
2022-09-10T13:40:31.684Z,63.60
2022-09-10T13:43:16.365Z,64.64
2022-09-10T13:45:52.766Z,64.99
2022-09-10T13:48:28.864Z,65.91
2022-09-10T13:51:18.249Z,66.08
2022-09-10T13:53:54.003Z,66.75
2022-09-10T13:56:32.264Z,67.01
2022-09-10T13:59:06.575Z,66.19
2022-09-10T14:01:54.067Z,66.00
2022-09-10T14:04:31.757Z,66.69
2022-09-10T14:07:13.072Z,65.60
2022-09-10T14:09:49.364Z,65.79
2022-09-10T14:12:27.852Z,65.50
2022-09-10T14:15:03.622Z,65.28
2022-09-10T14:17:43.075Z,64.74
2022-09-10T14:20:22.327Z,64.53
2022-09-10T14:23:00.896Z,64.78
2022-09-10T14:25:37.547Z,64.04
2022-09-10T14:28:21.849Z,63.15
2022-09-10T14:31:23.202Z,63.18
2022-09-10T14:33:57.008Z,63.62
2022-09-10T14:36:34.845Z,62.93
2022-09-10T14:39:17.583Z,62.95
2022-09-10T14:42:10.341Z,63.39
2022-09-10T14:44:43.768Z,62.50
2022-09-10T14:47:29.814Z,61.76
2022-09-10T14:50:27.263Z,63.03
2022-09-10T14:53:00.241Z,63.27
2022-09-10T14:55:34.150Z,62.87
2022-09-10T14:58:08.602Z,63.02
2022-09-10T15:00:43.033Z,64.05
2022-09-10T15:03:17.204Z,64.58
2022-09-10T15:05:50.558Z,64.20
2022-09-10T15:08:23.493Z,65.67
2022-09-10T15:10:56.563Z,66.16
2022-09-10T15:13:36.595Z,66.96
2022-09-10T15:16:10.982Z,66.81
2022-09-10T15:18:44.005Z,67.42
2022-09-10T15:21:17.539Z,68.56
2022-09-10T15:23:53.300Z,68.75
2022-09-10T15:26:26.579Z,69.23
2022-09-10T15:29:00.866Z,69.55
2022-09-10T15:31:34.959Z,69.20
2022-09-10T15:34:09.811Z,69.22
2022-09-10T15:36:43.140Z,68.86
2022-09-10T15:39:16.173Z,69.69
2022-09-10T15:41:49.053Z,69.17
2022-09-10T15:44:24.400Z,69.60
2022-09-10T15:46:57.299Z,69.95
2022-09-10T15:49:30.701Z,69.98
2022-09-10T15:52:04.247Z,70.24
2022-09-10T15:54:37.169Z,69.97
2022-09-10T15:57:10.164Z,70.01
2022-09-10T15:59:44.424Z,69.62
2022-09-10T16:02:18.495Z,69.68
2022-09-10T16:04:51.723Z,69.68
2022-09-10T16:07:24.634Z,69.73
2022-09-10T16:09:58.998Z,69.65
2022-09-10T16:12:31.955Z,69.53
2022-09-10T16:15:08.039Z,69.44
2022-09-10T16:17:40.896Z,69.31
2022-09-10T16:20:13.727Z,69.30
2022-09-10T16:22:47.604Z,69.36
2022-09-10T16:25:20.475Z,69.46
2022-09-10T16:27:53.335Z,68.68
2022-09-10T16:30:29.476Z,69.03
2022-09-10T16:33:02.926Z,68.88
2022-09-10T16:35:37.607Z,68.31
2022-09-10T16:38:10.489Z,68.40
2022-09-10T16:40:43.504Z,68.53
2022-09-10T16:43:25.666Z,67.92
2022-09-10T16:46:00.464Z,68.29
2022-09-10T16:48:34.351Z,68.13
2022-09-10T16:51:09.306Z,68.47
2022-09-10T16:53:44.360Z,68.37
2022-09-10T16:56:17.917Z,68.72
2022-09-10T16:58:51.098Z,68.17
2022-09-10T17:01:25.602Z,67.77
2022-09-10T17:03:58.648Z,67.89
2022-09-10T17:06:32.988Z,67.67
2022-09-10T17:09:05.843Z,67.69
2022-09-10T17:11:38.888Z,67.70
2022-09-10T17:14:12.449Z,67.03
2022-09-10T17:16:48.160Z,67.19
2022-09-10T17:19:23.549Z,67.08
2022-09-10T17:21:57.292Z,66.73
2022-09-10T17:24:30.118Z,66.03
2022-09-10T17:27:03.443Z,66.39
2022-09-10T17:29:36.240Z,66.34
2022-09-10T17:32:10.465Z,67.27
2022-09-10T17:34:43.622Z,66.84
2022-09-10T17:37:16.463Z,67.83
2022-09-10T17:39:51.596Z,67.22
2022-09-10T17:42:24.479Z,67.94
2022-09-10T17:44:57.287Z,68.06
2022-09-10T17:47:31.637Z,68.17
2022-09-10T17:50:04.820Z,68.17
2022-09-10T17:52:37.628Z,68.19
2022-09-10T17:55:11.727Z,68.08
2022-09-10T17:57:44.558Z,68.21
2022-09-10T18:00:18.803Z,68.92
2022-09-10T18:02:53.426Z,68.89
2022-09-10T18:05:27.401Z,69.49
2022-09-10T18:08:00.351Z,69.49
2022-09-10T18:10:33.697Z,69.27
2022-09-10T18:13:07.574Z,69.65
2022-09-10T18:15:42.322Z,69.45
2022-09-10T18:18:17.107Z,69.62
2022-09-10T18:20:50.888Z,69.72
2022-09-10T18:23:23.940Z,69.49
2022-09-10T18:25:57.521Z,69.80
2022-09-10T18:28:30.438Z,70.01
2022-09-10T18:31:05.025Z,69.87
2022-09-10T18:33:41.556Z,69.68
2022-09-10T18:36:16.529Z,69.58
2022-09-10T18:38:49.480Z,69.61
2022-09-10T18:41:25.936Z,69.54
2022-09-10T18:44:00.817Z,69.68
2022-09-10T18:46:34.267Z,69.48
2022-09-10T18:49:08.745Z,69.63
2022-09-10T18:51:42.299Z,69.78
2022-09-10T18:54:17.051Z,69.91
2022-09-10T18:56:51.194Z,70.23
2022-09-10T18:59:25.904Z,70.26
2022-09-10T19:01:59.419Z,70.89
2022-09-10T19:04:49.049Z,70.37
2022-09-10T19:07:28.817Z,69.99
2022-09-10T19:10:04.140Z,70.20
2022-09-10T19:12:37.171Z,70.22
2022-09-10T19:15:10.827Z,70.60
2022-09-10T19:17:43.697Z,70.69
2022-09-10T19:20:19.007Z,70.90
2022-09-10T19:22:51.879Z,70.81
2022-09-10T19:25:25.033Z,70.83
2022-09-10T19:27:58.487Z,71.02
2022-09-10T19:30:35.706Z,70.75
2022-09-10T19:33:08.586Z,70.64
2022-09-10T19:35:43.990Z,70.45
2022-09-10T19:38:36.696Z,70.62
2022-09-10T19:41:12.215Z,70.80
2022-09-10T19:43:45.445Z,70.83
2022-09-10T19:46:21.708Z,70.87
2022-09-10T19:48:55.399Z,71.08
2022-09-10T19:51:31.330Z,71.26
2022-09-10T19:54:07.531Z,71.31
2022-09-10T19:56:44.688Z,71.15
2022-09-10T19:59:18.047Z,71.31
2022-09-10T20:01:50.997Z,71.54
2022-09-10T20:04:25.575Z,71.35
2022-09-10T20:07:00.527Z,71.46
2022-09-10T20:09:37.910Z,71.56
2022-09-10T20:12:12.630Z,71.45
2022-09-10T20:14:45.467Z,71.82
2022-09-10T20:17:18.382Z,71.79
2022-09-10T20:19:51.454Z,71.66
2022-09-10T20:22:26.432Z,71.17
2022-09-10T20:24:59.994Z,71.04
2022-09-10T20:27:33.718Z,71.14
2022-09-10T20:30:07.579Z,71.24
2022-09-10T20:32:41.457Z,71.60
2022-09-10T20:35:14.893Z,71.60
2022-09-10T20:37:51.765Z,71.74
2022-09-10T20:40:25.078Z,71.97
2022-09-10T20:42:57.899Z,71.58
2022-09-10T20:45:31.198Z,71.53
2022-09-10T20:48:04.387Z,71.76
2022-09-10T20:50:37.264Z,71.29
2022-09-10T20:53:11.438Z,71.17
2022-09-10T20:55:44.262Z,70.92
2022-09-10T20:58:17.308Z,71.31
2022-09-10T21:00:50.435Z,71.37
2022-09-10T21:03:23.443Z,71.20
2022-09-10T21:05:56.204Z,71.66
2022-09-10T21:08:31.847Z,71.29
2022-09-10T21:11:06.985Z,71.40
2022-09-10T21:13:45.103Z,71.15
2022-09-10T21:16:19.850Z,71.64
2022-09-10T21:18:55.186Z,71.25
2022-09-10T21:21:29.786Z,71.54
2022-09-10T21:24:07.136Z,71.14
2022-09-10T21:26:41.953Z,71.47
2022-09-10T21:29:18.926Z,71.14
2022-09-10T21:31:54.590Z,71.60
2022-09-10T21:34:27.914Z,71.46
2022-09-10T21:37:00.818Z,71.54
2022-09-10T21:39:35.145Z,71.29
2022-09-10T21:42:08.151Z,71.25
2022-09-10T21:44:41.238Z,71.52
2022-09-10T21:47:14.403Z,71.38
2022-09-10T21:49:47.624Z,71.54
2022-09-10T21:52:20.454Z,70.92
2022-09-10T21:54:54.644Z,70.38
2022-09-10T21:57:28.209Z,71.06
2022-09-10T22:00:01.605Z,70.55
2022-09-10T22:02:36.208Z,70.69
2022-09-10T22:05:10.363Z,70.51
2022-09-10T22:07:43.189Z,70.46
2022-09-10T22:10:19.944Z,70.34
2022-09-10T22:12:53.008Z,70.35
2022-09-10T22:15:26.072Z,70.27
2022-09-10T22:17:59.952Z,70.24
2022-09-10T22:20:34.923Z,70.36
2022-09-10T22:23:07.693Z,70.09
2022-09-10T22:25:42.025Z,70.10
2022-09-10T22:28:15.006Z,70.23
2022-09-10T22:30:48.227Z,70.39
2022-09-10T22:33:20.997Z,70.25
2022-09-10T22:35:55.447Z,70.00
2022-09-10T22:38:28.234Z,70.24
2022-09-10T22:41:04.841Z,69.01
2022-09-10T22:43:39.065Z,69.55
2022-09-10T22:46:12.196Z,69.34
2022-09-10T22:48:46.373Z,69.28
2022-09-10T22:51:22.683Z,69.15
2022-09-10T22:53:56.690Z,69.42
2022-09-10T22:56:31.432Z,69.28
2022-09-10T22:59:05.281Z,69.84
2022-09-10T23:01:40.187Z,69.75
2022-09-10T23:04:13.301Z,70.08
2022-09-10T23:06:46.354Z,70.26
2022-09-10T23:09:19.334Z,70.13
2022-09-10T23:11:54.359Z,69.82
2022-09-10T23:14:27.164Z,70.09
2022-09-10T23:17:00.261Z,70.39
2022-09-10T23:19:33.017Z,70.29
2022-09-10T23:22:05.845Z,70.76
2022-09-10T23:24:38.641Z,70.61
2022-09-10T23:27:13.658Z,70.63
2022-09-10T23:29:49.826Z,70.75
2022-09-10T23:32:22.687Z,70.61
2022-09-10T23:34:55.554Z,70.87
2022-09-10T23:37:28.412Z,70.88
2022-09-10T23:40:01.338Z,70.56
2022-09-10T23:42:35.874Z,70.85
2022-09-10T23:45:09.435Z,70.90
2022-09-10T23:47:42.253Z,70.79
2022-09-10T23:50:15.389Z,71.21
2022-09-10T23:52:48.555Z,70.88
2022-09-10T23:55:21.473Z,70.58
2022-09-10T23:57:56.828Z,70.34
